sensor_id;sensor_type;location;lat;lon;timestamp;pressure;altitude;pressure_sealevel;temperature;humidity
17230;BME280;8731;50.364;8.958;2023-05-01T00:02:40;100223.13;;;12.99;65.69
17230;BME280;8731;50.364;8.958;2023-05-01T00:07:02;100222.09;;;12.87;67.07
17230;BME280;8731;50.364;8.958;2023-05-01T00:11:25;100216.72;;;12.74;68.29
17230;BME280;8731;50.364;8.958;2023-05-01T00:15:47;100215.31;;;12.67;68.05
17230;BME280;8731;50.364;8.958;2023-05-01T00:20:11;100207.78;;;12.69;68.66
17230;BME280;8731;50.364;8.958;2023-05-01T00:24:34;100202.41;;;12.66;67.85
17230;BME280;8731;50.364;8.958;2023-05-01T00:28:56;100204.06;;;12.75;67.53
17230;BME280;8731;50.364;8.958;2023-05-01T00:33:18;100199.56;;;12.52;68.86
17230;BME280;8731;50.364;8.958;2023-05-01T00:37:42;100190.63;;;12.47;69.16
17230;BME280;8731;50.364;8.958;2023-05-01T00:42:04;100187.91;;;12.25;70.29
17230;BME280;8731;50.364;8.958;2023-05-01T00:46:27;100187.56;;;12.31;69.47
17230;BME280;8731;50.364;8.958;2023-05-01T00:50:52;100186.34;;;12.07;71.21
17230;BME280;8731;50.364;8.958;2023-05-01T00:55:17;100175.81;;;12.33;68.87
17230;BME280;8731;50.364;8.958;2023-05-01T00:59:40;100182.19;;;11.70;73.30
17230;BME280;8731;50.364;8.958;2023-05-01T01:04:03;100161.16;;;12.02;71.76
17230;BME280;8731;50.364;8.958;2023-05-01T01:08:28;100158.41;;;11.80;72.05
17230;BME280;8731;50.364;8.958;2023-05-01T01:13:03;100153.84;;;11.86;71.10
17230;BME280;8731;50.364;8.958;2023-05-01T01:17:32;100151.06;;;11.74;72.03
17230;BME280;8731;50.364;8.958;2023-05-01T01:22:01;100143.97;;;11.80;71.79
17230;BME280;8731;50.364;8.958;2023-05-01T01:27:02;100140.16;;;11.56;73.36
17230;BME280;8731;50.364;8.958;2023-05-01T01:31:48;100142.06;;;11.59;71.86
17230;BME280;8731;50.364;8.958;2023-05-01T01:36:31;100141.50;;;11.43;73.55
17230;BME280;8731;50.364;8.958;2023-05-01T01:41:06;100141.16;;;11.29;74.04
17230;BME280;8731;50.364;8.958;2023-05-01T01:45:35;100132.69;;;11.39;72.92
17230;BME280;8731;50.364;8.958;2023-05-01T01:50:03;100132.09;;;11.23;73.37
17230;BME280;8731;50.364;8.958;2023-05-01T01:54:32;100132.31;;;11.16;73.58
17230;BME280;8731;50.364;8.958;2023-05-01T01:59:00;100126.44;;;10.98;75.26
17230;BME280;8731;50.364;8.958;2023-05-01T02:03:26;100122.91;;;10.87;75.72
17230;BME280;8731;50.364;8.958;2023-05-01T02:07:50;100122.59;;;10.74;75.93
17230;BME280;8731;50.364;8.958;2023-05-01T02:12:17;100121.16;;;10.67;76.38
17230;BME280;8731;50.364;8.958;2023-05-01T02:16:42;100120.81;;;10.45;78.13
17230;BME280;8731;50.364;8.958;2023-05-01T02:21:07;100124.00;;;10.62;76.11
17230;BME280;8731;50.364;8.958;2023-05-01T02:25:33;100127.06;;;10.13;80.31
17230;BME280;8731;50.364;8.958;2023-05-01T02:30:01;100117.81;;;10.50;77.08
17230;BME280;8731;50.364;8.958;2023-05-01T02:34:26;100111.28;;;10.34;78.29
17230;BME280;8731;50.364;8.958;2023-05-01T02:38:50;100099.22;;;10.14;79.25
17230;BME280;8731;50.364;8.958;2023-05-01T02:43:17;100108.63;;;9.88;81.04
17230;BME280;8731;50.364;8.958;2023-05-01T02:47:48;100104.47;;;10.16;79.14
17230;BME280;8731;50.364;8.958;2023-05-01T02:52:14;100107.31;;;9.83;81.44
17230;BME280;8731;50.364;8.958;2023-05-01T02:56:41;100106.44;;;10.10;78.81
17230;BME280;8731;50.364;8.958;2023-05-01T03:01:04;100099.38;;;10.16;78.60
17230;BME280;8731;50.364;8.958;2023-05-01T03:05:28;100102.66;;;9.88;80.37
17230;BME280;8731;50.364;8.958;2023-05-01T03:09:51;100097.97;;;9.56;81.03
17230;BME280;8731;50.364;8.958;2023-05-01T03:14:13;100091.56;;;9.96;78.11
17230;BME280;8731;50.364;8.958;2023-05-01T03:18:37;100093.28;;;9.78;79.27
17230;BME280;8731;50.364;8.958;2023-05-01T03:23:01;100087.38;;;9.51;81.03
17230;BME280;8731;50.364;8.958;2023-05-01T03:27:25;100088.84;;;9.58;79.52
17230;BME280;8731;50.364;8.958;2023-05-01T03:31:48;100089.41;;;9.64;79.50
17230;BME280;8731;50.364;8.958;2023-05-01T03:36:12;100090.75;;;9.69;79.35
17230;BME280;8731;50.364;8.958;2023-05-01T03:40:38;100090.59;;;9.68;79.13
17230;BME280;8731;50.364;8.958;2023-05-01T03:45:26;100087.34;;;9.60;79.82
17230;BME280;8731;50.364;8.958;2023-05-01T03:49:49;100094.75;;;9.31;82.64
17230;BME280;8731;50.364;8.958;2023-05-01T03:54:11;100081.16;;;8.96;85.38
17230;BME280;8731;50.364;8.958;2023-05-01T03:59:01;100075.38;;;8.80;86.08
17230;BME280;8731;50.364;8.958;2023-05-01T04:03:24;100079.38;;;9.12;83.48
17230;BME280;8731;50.364;8.958;2023-05-01T04:07:47;100076.41;;;9.08;84.45
17230;BME280;8731;50.364;8.958;2023-05-01T04:12:10;100075.16;;;9.21;82.77
17230;BME280;8731;50.364;8.958;2023-05-01T04:16:34;100073.88;;;8.90;84.35
17230;BME280;8731;50.364;8.958;2023-05-01T04:20:57;100091.94;;;9.11;82.50
17230;BME280;8731;50.364;8.958;2023-05-01T04:25:20;100084.31;;;9.02;83.43
17230;BME280;8731;50.364;8.958;2023-05-01T04:29:45;100088.63;;;9.12;81.56
17230;BME280;8731;50.364;8.958;2023-05-01T04:34:09;100083.84;;;9.23;81.43
17230;BME280;8731;50.364;8.958;2023-05-01T04:38:31;100073.28;;;9.02;84.17
17230;BME280;8731;50.364;8.958;2023-05-01T04:42:56;100075.03;;;9.11;83.87
17230;BME280;8731;50.364;8.958;2023-05-01T04:47:19;100078.63;;;9.13;83.64
17230;BME280;8731;50.364;8.958;2023-05-01T04:51:43;100078.47;;;9.29;82.62
17230;BME280;8731;50.364;8.958;2023-05-01T04:56:08;100074.28;;;9.21;82.25
17230;BME280;8731;50.364;8.958;2023-05-01T05:00:31;100074.25;;;9.38;81.58
17230;BME280;8731;50.364;8.958;2023-05-01T05:04:54;100079.22;;;9.11;86.01
17230;BME280;8731;50.364;8.958;2023-05-01T05:09:19;100073.69;;;9.15;86.44
17230;BME280;8731;50.364;8.958;2023-05-01T05:13:41;100071.59;;;9.19;86.10
17230;BME280;8731;50.364;8.958;2023-05-01T05:18:06;100073.22;;;9.36;86.15
17230;BME280;8731;50.364;8.958;2023-05-01T05:22:29;100067.41;;;9.29;86.46
17230;BME280;8731;50.364;8.958;2023-05-01T05:27:22;100077.13;;;9.69;83.77
17230;BME280;8731;50.364;8.958;2023-05-01T05:31:45;100067.28;;;9.72;83.37
17230;BME280;8731;50.364;8.958;2023-05-01T05:36:08;100064.00;;;9.73;84.85
17230;BME280;8731;50.364;8.958;2023-05-01T05:40:34;100056.13;;;9.89;84.63
17230;BME280;8731;50.364;8.958;2023-05-01T05:44:58;100053.31;;;10.13;82.88
17230;BME280;8731;50.364;8.958;2023-05-01T05:49:21;100055.44;;;10.08;84.59
17230;BME280;8731;50.364;8.958;2023-05-01T05:53:43;100047.53;;;10.33;84.53
17230;BME280;8731;50.364;8.958;2023-05-01T05:58:06;100051.19;;;10.64;83.59
17230;BME280;8731;50.364;8.958;2023-05-01T06:02:32;100043.22;;;10.88;84.35
17230;BME280;8731;50.364;8.958;2023-05-01T06:06:55;100040.88;;;11.29;83.18
17230;BME280;8731;50.364;8.958;2023-05-01T06:11:18;100037.56;;;11.69;81.42
17230;BME280;8731;50.364;8.958;2023-05-01T06:15:41;100035.50;;;12.14;79.75
17230;BME280;8731;50.364;8.958;2023-05-01T06:20:08;100031.88;;;12.73;78.52
17230;BME280;8731;50.364;8.958;2023-05-01T06:24:34;100020.38;;;13.31;77.15
17230;BME280;8731;50.364;8.958;2023-05-01T06:29:00;100024.56;;;13.84;77.15
17230;BME280;8731;50.364;8.958;2023-05-01T06:33:24;100012.31;;;14.13;75.50
17230;BME280;8731;50.364;8.958;2023-05-01T06:37:58;100009.69;;;14.69;74.19
17230;BME280;8731;50.364;8.958;2023-05-01T06:42:22;100003.78;;;15.17;72.46
17230;BME280;8731;50.364;8.958;2023-05-01T06:46:45;100002.78;;;15.51;71.11
17230;BME280;8731;50.364;8.958;2023-05-01T06:51:07;99999.13;;;15.48;70.16
17230;BME280;8731;50.364;8.958;2023-05-01T06:55:36;100005.94;;;15.59;68.79
17230;BME280;8731;50.364;8.958;2023-05-01T06:59:59;100002.50;;;15.83;64.22
17230;BME280;8731;50.364;8.958;2023-05-01T07:04:21;99989.69;;;16.60;62.21
17230;BME280;8731;50.364;8.958;2023-05-01T07:08:44;100001.56;;;16.71;61.92
17230;BME280;8731;50.364;8.958;2023-05-01T07:13:08;100001.44;;;16.18;56.62
17230;BME280;8731;50.364;8.958;2023-05-01T07:17:30;99994.22;;;16.64;54.17
17230;BME280;8731;50.364;8.958;2023-05-01T07:21:52;99989.09;;;16.64;55.52
17230;BME280;8731;50.364;8.958;2023-05-01T07:26:15;99983.97;;;16.25;53.39
17230;BME280;8731;50.364;8.958;2023-05-01T07:30:39;99972.03;;;17.04;54.93
17230;BME280;8731;50.364;8.958;2023-05-01T07:35:01;99974.97;;;16.57;51.92
17230;BME280;8731;50.364;8.958;2023-05-01T07:39:25;99971.03;;;16.88;52.84
17230;BME280;8731;50.364;8.958;2023-05-01T07:43:47;99965.16;;;16.65;52.71
17230;BME280;8731;50.364;8.958;2023-05-01T07:48:11;99966.56;;;16.99;53.13
17230;BME280;8731;50.364;8.958;2023-05-01T07:52:33;99965.97;;;16.77;50.53
17230;BME280;8731;50.364;8.958;2023-05-01T07:56:57;99962.50;;;17.57;52.02
17230;BME280;8731;50.364;8.958;2023-05-01T08:01:21;99965.44;;;17.35;52.26
17230;BME280;8731;50.364;8.958;2023-05-01T08:05:45;99965.69;;;17.53;50.62
17230;BME280;8731;50.364;8.958;2023-05-01T08:10:08;99969.97;;;17.39;50.68
17230;BME280;8731;50.364;8.958;2023-05-01T08:14:34;99969.66;;;18.04;51.29
17230;BME280;8731;50.364;8.958;2023-05-01T08:18:57;99961.59;;;18.57;50.77
17230;BME280;8731;50.364;8.958;2023-05-01T08:23:21;99963.53;;;18.61;50.86
17230;BME280;8731;50.364;8.958;2023-05-01T08:27:44;99959.63;;;18.53;49.96
17230;BME280;8731;50.364;8.958;2023-05-01T08:32:07;99954.53;;;18.98;49.57
17230;BME280;8731;50.364;8.958;2023-05-01T08:36:29;99948.53;;;18.39;47.85
17230;BME280;8731;50.364;8.958;2023-05-01T08:40:53;99944.47;;;19.03;50.21
17230;BME280;8731;50.364;8.958;2023-05-01T08:45:18;99951.41;;;19.04;47.79
17230;BME280;8731;50.364;8.958;2023-05-01T08:49:42;99948.59;;;19.63;47.14
17230;BME280;8731;50.364;8.958;2023-05-01T08:54:06;99948.59;;;19.63;47.90
17230;BME280;8731;50.364;8.958;2023-05-01T08:58:34;99939.72;;;19.90;47.87
17230;BME280;8731;50.364;8.958;2023-05-01T09:02:59;99936.72;;;19.83;48.15
17230;BME280;8731;50.364;8.958;2023-05-01T09:07:22;99934.06;;;19.98;47.31
17230;BME280;8731;50.364;8.958;2023-05-01T09:11:46;99933.38;;;19.68;46.81
17230;BME280;8731;50.364;8.958;2023-05-01T09:16:10;99926.81;;;20.59;47.60
17230;BME280;8731;50.364;8.958;2023-05-01T09:20:36;99927.38;;;20.53;45.78
17230;BME280;8731;50.364;8.958;2023-05-01T09:24:59;99928.72;;;20.45;44.82
17230;BME280;8731;50.364;8.958;2023-05-01T09:29:37;99931.22;;;20.79;46.71
17230;BME280;8731;50.364;8.958;2023-05-01T09:34:02;99922.78;;;21.01;45.85
17230;BME280;8731;50.364;8.958;2023-05-01T09:38:27;99921.72;;;20.60;46.24
17230;BME280;8731;50.364;8.958;2023-05-01T09:42:51;99925.13;;;20.59;45.41
17230;BME280;8731;50.364;8.958;2023-05-01T09:47:20;99916.78;;;20.82;47.49
17230;BME280;8731;50.364;8.958;2023-05-01T09:51:44;99918.22;;;20.77;45.88
17230;BME280;8731;50.364;8.958;2023-05-01T09:56:07;99913.97;;;21.15;45.26
17230;BME280;8731;50.364;8.958;2023-05-01T10:00:30;99914.88;;;20.80;44.08
17230;BME280;8731;50.364;8.958;2023-05-01T10:04:57;99912.75;;;21.07;44.20
17230;BME280;8731;50.364;8.958;2023-05-01T10:09:27;99910.84;;;21.79;44.73
17230;BME280;8731;50.364;8.958;2023-05-01T10:14:04;99912.63;;;21.60;43.97
17230;BME280;8731;50.364;8.958;2023-05-01T10:18:29;99899.97;;;22.07;43.66
17230;BME280;8731;50.364;8.958;2023-05-01T10:22:53;99899.22;;;22.09;44.31
17230;BME280;8731;50.364;8.958;2023-05-01T10:27:17;99892.28;;;22.29;42.45
17230;BME280;8731;50.364;8.958;2023-05-01T10:31:42;99888.44;;;22.42;42.05
17230;BME280;8731;50.364;8.958;2023-05-01T10:36:07;99893.63;;;22.21;42.78
17230;BME280;8731;50.364;8.958;2023-05-01T10:40:42;99892.13;;;22.05;44.89
17230;BME280;8731;50.364;8.958;2023-05-01T10:45:29;99895.34;;;21.61;44.80
17230;BME280;8731;50.364;8.958;2023-05-01T10:50:02;99885.94;;;21.63;44.07
17230;BME280;8731;50.364;8.958;2023-05-01T10:54:25;99885.59;;;22.15;43.58
17230;BME280;8731;50.364;8.958;2023-05-01T10:58:56;99877.59;;;22.09;42.79
17230;BME280;8731;50.364;8.958;2023-05-01T11:03:36;99876.06;;;22.14;41.71
17230;BME280;8731;50.364;8.958;2023-05-01T11:08:27;99881.25;;;22.55;42.68
17230;BME280;8731;50.364;8.958;2023-05-01T11:12:51;99870.22;;;22.40;42.34
17230;BME280;8731;50.364;8.958;2023-05-01T11:17:46;99868.28;;;22.78;41.34
17230;BME280;8731;50.364;8.958;2023-05-01T11:22:12;99863.47;;;22.66;40.85
17230;BME280;8731;50.364;8.958;2023-05-01T11:26:37;99847.72;;;23.05;41.27
17230;BME280;8731;50.364;8.958;2023-05-01T11:31:01;99860.38;;;22.75;40.74
17230;BME280;8731;50.364;8.958;2023-05-01T11:35:25;99867.44;;;22.79;40.79
17230;BME280;8731;50.364;8.958;2023-05-01T11:39:51;99863.00;;;22.54;42.49
17230;BME280;8731;50.364;8.958;2023-05-01T11:44:15;99858.47;;;22.27;42.20
17230;BME280;8731;50.364;8.958;2023-05-01T11:48:38;99855.78;;;22.47;41.08
17230;BME280;8731;50.364;8.958;2023-05-01T11:53:01;99850.16;;;22.79;40.13
17230;BME280;8731;50.364;8.958;2023-05-01T11:57:26;99842.28;;;22.33;40.97
17230;BME280;8731;50.364;8.958;2023-05-01T12:01:48;99846.75;;;22.37;41.05
17230;BME280;8731;50.364;8.958;2023-05-01T12:06:11;99840.06;;;21.60;41.95
17230;BME280;8731;50.364;8.958;2023-05-01T12:10:34;99840.16;;;22.03;42.64
17230;BME280;8731;50.364;8.958;2023-05-01T12:14:58;99845.94;;;20.45;44.85
17230;BME280;8731;50.364;8.958;2023-05-01T12:19:21;99842.47;;;20.99;42.71
17230;BME280;8731;50.364;8.958;2023-05-01T12:23:44;99828.38;;;21.70;43.10
17230;BME280;8731;50.364;8.958;2023-05-01T12:28:08;99833.38;;;21.27;44.46
17230;BME280;8731;50.364;8.958;2023-05-01T12:32:33;99836.03;;;21.09;42.98
17230;BME280;8731;50.364;8.958;2023-05-01T12:36:56;99831.94;;;21.53;43.40
17230;BME280;8731;50.364;8.958;2023-05-01T12:41:19;99839.97;;;21.78;42.28
17230;BME280;8731;50.364;8.958;2023-05-01T12:45:41;99829.72;;;21.04;42.15
17230;BME280;8731;50.364;8.958;2023-05-01T12:50:06;99833.69;;;21.15;42.33
17230;BME280;8731;50.364;8.958;2023-05-01T12:54:30;99828.66;;;20.62;41.91
17230;BME280;8731;50.364;8.958;2023-05-01T12:58:53;99828.56;;;20.97;41.93
17230;BME280;8731;50.364;8.958;2023-05-01T13:03:22;99822.31;;;21.69;42.46
17230;BME280;8731;50.364;8.958;2023-05-01T13:07:50;99827.47;;;20.55;41.95
17230;BME280;8731;50.364;8.958;2023-05-01T13:12:13;99815.94;;;20.66;40.83
17230;BME280;8731;50.364;8.958;2023-05-01T13:16:43;99819.06;;;20.59;41.48
17230;BME280;8731;50.364;8.958;2023-05-01T13:21:07;99806.59;;;21.07;42.61
17230;BME280;8731;50.364;8.958;2023-05-01T13:25:32;99803.03;;;21.43;41.89
17230;BME280;8731;50.364;8.958;2023-05-01T13:29:55;99806.69;;;21.68;41.63
17230;BME280;8731;50.364;8.958;2023-05-01T13:34:29;99805.28;;;21.76;41.70
17230;BME280;8731;50.364;8.958;2023-05-01T13:38:54;99795.09;;;21.79;41.47
17230;BME280;8731;50.364;8.958;2023-05-01T13:43:18;99795.75;;;21.75;41.42
17230;BME280;8731;50.364;8.958;2023-05-01T13:47:41;99789.00;;;21.79;41.28
17230;BME280;8731;50.364;8.958;2023-05-01T13:52:04;99791.03;;;21.45;41.16
17230;BME280;8731;50.364;8.958;2023-05-01T13:56:26;99797.34;;;21.92;41.16
17230;BME280;8731;50.364;8.958;2023-05-01T14:00:49;99790.97;;;21.84;42.70
17230;BME280;8731;50.364;8.958;2023-05-01T14:05:12;99787.47;;;21.63;42.52
17230;BME280;8731;50.364;8.958;2023-05-01T14:09:35;99783.06;;;22.02;43.79
17230;BME280;8731;50.364;8.958;2023-05-01T14:13:59;99783.34;;;22.08;43.05
17230;BME280;8731;50.364;8.958;2023-05-01T14:18:24;99781.97;;;21.97;42.63
17230;BME280;8731;50.364;8.958;2023-05-01T14:22:47;99778.97;;;22.07;42.58
17230;BME280;8731;50.364;8.958;2023-05-01T14:27:12;99773.06;;;21.90;41.44
17230;BME280;8731;50.364;8.958;2023-05-01T14:31:35;99778.59;;;21.77;42.01
17230;BME280;8731;50.364;8.958;2023-05-01T14:35:59;99779.38;;;21.76;42.00
17230;BME280;8731;50.364;8.958;2023-05-01T14:40:24;99782.09;;;21.58;42.24
17230;BME280;8731;50.364;8.958;2023-05-01T14:44:47;99781.00;;;21.32;42.94
17230;BME280;8731;50.364;8.958;2023-05-01T14:49:10;99777.41;;;21.50;43.92
17230;BME280;8731;50.364;8.958;2023-05-01T14:53:39;99779.94;;;21.29;43.15
17230;BME280;8731;50.364;8.958;2023-05-01T14:58:02;99784.50;;;20.96;43.16
17230;BME280;8731;50.364;8.958;2023-05-01T15:02:25;99777.84;;;21.39;42.96
17230;BME280;8731;50.364;8.958;2023-05-01T15:06:47;99782.63;;;21.30;42.56
17230;BME280;8731;50.364;8.958;2023-05-01T15:11:11;99789.66;;;20.96;42.67
17230;BME280;8731;50.364;8.958;2023-05-01T15:15:34;99782.66;;;21.12;43.09
17230;BME280;8731;50.364;8.958;2023-05-01T15:19:56;99786.88;;;20.91;42.65
17230;BME280;8731;50.364;8.958;2023-05-01T15:24:19;99779.72;;;20.66;42.75
17230;BME280;8731;50.364;8.958;2023-05-01T15:28:43;99779.94;;;20.90;43.06
17230;BME280;8731;50.364;8.958;2023-05-01T15:33:06;99782.84;;;20.78;42.30
17230;BME280;8731;50.364;8.958;2023-05-01T15:37:29;99785.63;;;20.64;42.93
17230;BME280;8731;50.364;8.958;2023-05-01T15:41:52;99778.78;;;20.83;42.55
17230;BME280;8731;50.364;8.958;2023-05-01T15:46:15;99786.59;;;20.48;44.05
17230;BME280;8731;50.364;8.958;2023-05-01T15:50:38;99778.72;;;20.82;43.74
17230;BME280;8731;50.364;8.958;2023-05-01T15:55:01;99784.84;;;20.84;43.98
17230;BME280;8731;50.364;8.958;2023-05-01T15:59:23;99793.97;;;20.58;43.24
17230;BME280;8731;50.364;8.958;2023-05-01T16:03:48;99786.22;;;20.58;43.79
17230;BME280;8731;50.364;8.958;2023-05-01T16:08:10;99786.38;;;20.26;43.37
17230;BME280;8731;50.364;8.958;2023-05-01T16:12:33;99788.75;;;20.39;43.73
17230;BME280;8731;50.364;8.958;2023-05-01T16:16:55;99790.44;;;20.38;43.41
17230;BME280;8731;50.364;8.958;2023-05-01T16:21:19;99789.19;;;20.48;44.04
17230;BME280;8731;50.364;8.958;2023-05-01T16:25:42;99795.03;;;20.44;43.71
17230;BME280;8731;50.364;8.958;2023-05-01T16:30:05;99793.78;;;20.18;44.12
17230;BME280;8731;50.364;8.958;2023-05-01T16:34:29;99794.25;;;20.29;44.77
17230;BME280;8731;50.364;8.958;2023-05-01T16:38:53;99796.66;;;20.42;44.80
17230;BME280;8731;50.364;8.958;2023-05-01T16:43:15;99796.03;;;20.30;44.33
17230;BME280;8731;50.364;8.958;2023-05-01T16:47:37;99804.25;;;20.39;44.61
17230;BME280;8731;50.364;8.958;2023-05-01T16:52:00;99799.41;;;20.45;44.52
17230;BME280;8731;50.364;8.958;2023-05-01T16:56:24;99807.88;;;20.24;44.28
17230;BME280;8731;50.364;8.958;2023-05-01T17:00:46;99805.59;;;20.13;45.04
17230;BME280;8731;50.364;8.958;2023-05-01T17:05:09;99809.59;;;20.42;45.12
17230;BME280;8731;50.364;8.958;2023-05-01T17:09:31;99807.94;;;20.08;45.43
17230;BME280;8731;50.364;8.958;2023-05-01T17:13:55;99804.38;;;20.06;45.71
17230;BME280;8731;50.364;8.958;2023-05-01T17:18:18;99812.66;;;19.99;45.69
17230;BME280;8731;50.364;8.958;2023-05-01T17:22:40;99813.84;;;19.88;45.12
17230;BME280;8731;50.364;8.958;2023-05-01T17:27:03;99816.09;;;19.82;45.49
17230;BME280;8731;50.364;8.958;2023-05-01T17:31:27;99820.75;;;19.55;46.42
17230;BME280;8731;50.364;8.958;2023-05-01T17:35:50;99819.56;;;19.65;46.26
17230;BME280;8731;50.364;8.958;2023-05-01T17:40:14;99823.31;;;19.71;46.68
17230;BME280;8731;50.364;8.958;2023-05-01T17:44:37;99831.00;;;19.53;47.20
17230;BME280;8731;50.364;8.958;2023-05-01T17:49:01;99831.78;;;19.52;47.80
17230;BME280;8731;50.364;8.958;2023-05-01T17:53:23;99833.75;;;19.56;48.17
17230;BME280;8731;50.364;8.958;2023-05-01T17:57:45;99831.00;;;19.53;48.42
17230;BME280;8731;50.364;8.958;2023-05-01T18:02:08;99836.00;;;19.50;48.45
17230;BME280;8731;50.364;8.958;2023-05-01T18:06:32;99841.06;;;19.49;48.50
17230;BME280;8731;50.364;8.958;2023-05-01T18:10:54;99839.63;;;19.38;48.48
17230;BME280;8731;50.364;8.958;2023-05-01T18:15:16;99851.31;;;19.31;48.97
17230;BME280;8731;50.364;8.958;2023-05-01T18:19:39;99850.69;;;19.35;49.54
17230;BME280;8731;50.364;8.958;2023-05-01T18:24:03;99858.00;;;19.11;50.48
17230;BME280;8731;50.364;8.958;2023-05-01T18:28:26;99859.44;;;18.90;52.55
17230;BME280;8731;50.364;8.958;2023-05-01T18:32:48;99869.97;;;18.78;53.34
17230;BME280;8731;50.364;8.958;2023-05-01T18:37:10;99866.66;;;18.50;51.97
17230;BME280;8731;50.364;8.958;2023-05-01T18:41:34;99868.34;;;18.49;50.72
17230;BME280;8731;50.364;8.958;2023-05-01T18:45:57;99873.22;;;18.45;51.46
17230;BME280;8731;50.364;8.958;2023-05-01T18:50:19;99881.25;;;18.34;51.76
17230;BME280;8731;50.364;8.958;2023-05-01T18:54:42;99892.63;;;18.23;52.29
17230;BME280;8731;50.364;8.958;2023-05-01T18:59:07;99907.88;;;17.91;53.19
17230;BME280;8731;50.364;8.958;2023-05-01T19:03:29;99910.09;;;17.85;53.55
17230;BME280;8731;50.364;8.958;2023-05-01T19:07:51;99915.34;;;17.86;53.71
17230;BME280;8731;50.364;8.958;2023-05-01T19:12:18;99926.41;;;17.70;53.98
17230;BME280;8731;50.364;8.958;2023-05-01T19:16:41;99934.84;;;17.68;54.28
17230;BME280;8731;50.364;8.958;2023-05-01T19:21:04;99936.97;;;17.47;54.81
17230;BME280;8731;50.364;8.958;2023-05-01T19:25:26;99941.31;;;17.48;54.87
17230;BME280;8731;50.364;8.958;2023-05-01T19:29:49;99941.19;;;17.32;55.35
17230;BME280;8731;50.364;8.958;2023-05-01T19:34:14;99953.09;;;17.16;55.88
17230;BME280;8731;50.364;8.958;2023-05-01T19:38:36;99955.44;;;17.27;55.42
17230;BME280;8731;50.364;8.958;2023-05-01T19:42:59;99967.34;;;17.11;56.06
17230;BME280;8731;50.364;8.958;2023-05-01T19:47:21;99973.47;;;17.00;56.63
17230;BME280;8731;50.364;8.958;2023-05-01T19:51:45;99989.31;;;16.93;57.29
17230;BME280;8731;50.364;8.958;2023-05-01T19:56:07;99995.75;;;16.73;59.30
17230;BME280;8731;50.364;8.958;2023-05-01T20:00:30;99988.78;;;16.59;60.47
17230;BME280;8731;50.364;8.958;2023-05-01T20:04:52;99998.13;;;16.70;59.34
17230;BME280;8731;50.364;8.958;2023-05-01T20:09:16;99996.97;;;16.40;61.41
17230;BME280;8731;50.364;8.958;2023-05-01T20:13:38;100000.97;;;16.75;59.44
17230;BME280;8731;50.364;8.958;2023-05-01T20:18:01;100009.09;;;16.68;59.75
17230;BME280;8731;50.364;8.958;2023-05-01T20:22:23;100013.78;;;16.48;60.12
17230;BME280;8731;50.364;8.958;2023-05-01T20:26:47;100014.97;;;16.53;60.22
17230;BME280;8731;50.364;8.958;2023-05-01T20:31:13;100022.81;;;16.30;61.45
17230;BME280;8731;50.364;8.958;2023-05-01T20:35:35;100024.88;;;16.61;60.05
17230;BME280;8731;50.364;8.958;2023-05-01T20:39:58;100034.13;;;16.45;61.27
17230;BME280;8731;50.364;8.958;2023-05-01T20:44:22;100037.78;;;16.11;62.51
17230;BME280;8731;50.364;8.958;2023-05-01T20:48:44;100037.00;;;16.12;62.69
17230;BME280;8731;50.364;8.958;2023-05-01T20:53:06;100040.88;;;16.18;61.96
17230;BME280;8731;50.364;8.958;2023-05-01T20:57:29;100043.03;;;16.12;61.81
17230;BME280;8731;50.364;8.958;2023-05-01T21:01:52;100040.38;;;16.11;61.62
17230;BME280;8731;50.364;8.958;2023-05-01T21:06:15;100052.94;;;15.94;62.13
17230;BME280;8731;50.364;8.958;2023-05-01T21:10:38;100051.56;;;16.00;61.99
17230;BME280;8731;50.364;8.958;2023-05-01T21:15:00;100056.97;;;15.91;62.46
17230;BME280;8731;50.364;8.958;2023-05-01T21:19:25;100052.63;;;15.78;62.79
17230;BME280;8731;50.364;8.958;2023-05-01T21:23:47;100064.59;;;15.78;63.16
17230;BME280;8731;50.364;8.958;2023-05-01T21:28:11;100063.69;;;15.77;62.87
17230;BME280;8731;50.364;8.958;2023-05-01T21:32:38;100063.91;;;15.57;63.98
17230;BME280;8731;50.364;8.958;2023-05-01T21:37:02;100073.66;;;14.67;70.04
17230;BME280;8731;50.364;8.958;2023-05-01T21:41:24;100071.72;;;14.65;69.83
17230;BME280;8731;50.364;8.958;2023-05-01T21:45:47;100071.88;;;14.90;67.94
17230;BME280;8731;50.364;8.958;2023-05-01T21:50:11;100074.91;;;14.96;67.52
17230;BME280;8731;50.364;8.958;2023-05-01T21:54:37;100079.59;;;15.01;67.05
17230;BME280;8731;50.364;8.958;2023-05-01T21:59:00;100078.59;;;14.99;67.16
17230;BME280;8731;50.364;8.958;2023-05-01T22:03:25;100092.75;;;14.94;68.16
17230;BME280;8731;50.364;8.958;2023-05-01T22:07:47;100091.38;;;14.88;68.02
17230;BME280;8731;50.364;8.958;2023-05-01T22:12:12;100095.19;;;14.93;67.95
17230;BME280;8731;50.364;8.958;2023-05-01T22:16:34;100093.03;;;14.76;69.39
17230;BME280;8731;50.364;8.958;2023-05-01T22:20:57;100108.16;;;14.39;72.78
17230;BME280;8731;50.364;8.958;2023-05-01T22:25:20;100105.75;;;14.86;69.25
17230;BME280;8731;50.364;8.958;2023-05-01T22:29:44;100117.53;;;13.95;76.16
17230;BME280;8731;50.364;8.958;2023-05-01T22:34:06;100113.97;;;13.93;77.50
17230;BME280;8731;50.364;8.958;2023-05-01T22:38:29;100121.25;;;14.20;75.27
17230;BME280;8731;50.364;8.958;2023-05-01T22:42:51;100122.22;;;13.78;78.01
17230;BME280;8731;50.364;8.958;2023-05-01T22:47:15;100122.25;;;14.00;75.79
17230;BME280;8731;50.364;8.958;2023-05-01T22:51:37;100136.06;;;14.24;73.26
17230;BME280;8731;50.364;8.958;2023-05-01T22:55:59;100131.75;;;14.35;72.26
17230;BME280;8731;50.364;8.958;2023-05-01T23:00:22;100134.78;;;14.19;73.24
17230;BME280;8731;50.364;8.958;2023-05-01T23:04:46;100138.28;;;14.20;73.23
17230;BME280;8731;50.364;8.958;2023-05-01T23:09:08;100143.41;;;14.20;73.79
17230;BME280;8731;50.364;8.958;2023-05-01T23:13:31;100150.44;;;14.22;73.88
17230;BME280;8731;50.364;8.958;2023-05-01T23:17:54;100154.34;;;14.29;73.38
17230;BME280;8731;50.364;8.958;2023-05-01T23:22:18;100166.47;;;13.88;77.03
17230;BME280;8731;50.364;8.958;2023-05-01T23:26:42;100160.81;;;13.92;76.91
17230;BME280;8731;50.364;8.958;2023-05-01T23:31:09;100172.81;;;13.93;76.36
17230;BME280;8731;50.364;8.958;2023-05-01T23:35:38;100171.69;;;13.89;76.87